Terminal Aerodrome Forecast
Issued by NWS

Home | Current Version | Previous Version | Text Only | Print | Product List | Glossary On
Versions: 1 2 3 4 5 6 7 8 9 10 11 12 13 14 15 16 17
000
FTUS42 KTAE 261726
TAFVLD
TAF
KVLD 261726Z 2618/2718 19011KT P6SM BKN050
     FM262000 19004KT P6SM VCTS BKN050CB
     FM270100 19004KT P6SM FEW030
     FM271100 VRB03KT 2SM BR BKN003
     FM271400 17006KT P6SM SCT250=

USA.gov is the U.S. government's official web portal to all federal, state and local government web resources and services.